メインページ
METAR-TAF:

METAR-TAF

空港 :

バミューダ諸島, バミューダ諸島

バミューダ国際空港

緯度: 32-22N, 経度: 064-41W, 海抜: 6m

現時点の気象観測

当レポートは1時間8分前の10:55(UTC)に作成
北/北東の風 11kt
気温 13°C
湿度 62%
気圧 1031 hPa
視程10km以上
高度5000ftの千切れ雲あり

METAR: TXKF 241055Z 03011KT 9999 BKN050 13/06 Q1031

時間: 09:03 (12:03 UTC)

予報

当レポートは28分前の11:35(UTC)に作成
予報は24日の 12時(UTC)から 25日の 12時(UTC)まで有効
北東の風 15kt
視程10km以上
高度5000ftの千切れ雲あり
25日の 03時(UTC)から 25日の 06時(UTC)まで徐々に
の風 10kt

TAF: TXKF 241135Z 2412/2512 05015KT 9999 BKN050 BECMG 2503/2506 09010KT

4,000以上の空港の気象観測と天気予報(METAR報とTAF報)

利用可能な観測所は地図上に黄色い丸と赤い丸で示す。

丸の上にカーソルを重ねると観測所名を参照できる。

次にクリックすると気象観測と天気予報を参照できる。

マップの切り替え:黒色「×」印の緑ボタンをクリックして拡大、「-」印の緑ボタンをクリックして縮小、緑色の三角印をクリックして隣りの地図に切り替え


METAR-TAF: